createdAt,value
2017-11-07T00:01:15.671Z,37.67
2017-11-07T00:04:03.840Z,37.67
2017-11-07T00:06:31.030Z,37.71
2017-11-07T00:08:58.268Z,37.73
2017-11-07T00:11:25.439Z,37.73
2017-11-07T00:13:52.648Z,37.72
2017-11-07T00:16:30.079Z,37.76
2017-11-07T00:21:43.073Z,37.82
2017-11-07T00:24:10.368Z,37.86
2017-11-07T00:26:37.588Z,37.90
2017-11-07T00:29:04.898Z,37.91
2017-11-07T00:31:32.177Z,37.93
2017-11-07T00:33:59.349Z,37.92
2017-11-07T00:36:26.569Z,37.93
2017-11-07T00:38:53.829Z,37.92
2017-11-07T00:41:21.064Z,37.96
2017-11-07T00:43:48.312Z,37.99
2017-11-07T00:46:32.493Z,37.99
2017-11-07T00:49:07.480Z,38.01
2017-11-07T00:51:34.767Z,38.01
2017-11-07T00:54:01.937Z,38.07
2017-11-07T00:56:29.108Z,38.11
2017-11-07T00:58:56.372Z,38.12
2017-11-07T01:01:34.475Z,38.11
2017-11-07T01:04:01.726Z,38.08
2017-11-07T01:06:29.050Z,38.15
2017-11-07T01:08:56.252Z,38.17
2017-11-07T01:11:23.430Z,38.20
2017-11-07T01:13:50.625Z,38.22
2017-11-07T01:16:17.903Z,38.26
2017-11-07T01:18:45.090Z,38.32
2017-11-07T01:21:12.272Z,38.31
2017-11-07T01:23:52.442Z,38.34
2017-11-07T01:26:19.836Z,38.29
2017-11-07T01:28:47.130Z,38.32
2017-11-07T01:31:14.350Z,38.36
2017-11-07T01:33:41.538Z,38.39
2017-11-07T01:36:08.758Z,38.39
2017-11-07T01:38:43.397Z,38.41
2017-11-07T01:41:10.574Z,38.43
2017-11-07T01:43:37.804Z,38.45
2017-11-07T01:46:05.788Z,38.47
2017-11-07T01:48:54.655Z,38.48
2017-11-07T01:51:22.242Z,38.46
2017-11-07T01:53:49.421Z,38.48
2017-11-07T01:56:17.549Z,38.54
2017-11-07T01:58:58.002Z,38.58
2017-11-07T02:01:32.539Z,38.58
2017-11-07T02:03:59.719Z,38.48
2017-11-07T02:06:27.255Z,38.41
2017-11-07T02:08:54.639Z,38.34
2017-11-07T02:11:21.950Z,38.39
2017-11-07T02:13:49.164Z,38.57
2017-11-07T02:16:29.631Z,38.77
2017-11-07T02:18:56.799Z,38.75
2017-11-07T02:21:36.517Z,38.80
2017-11-07T02:24:03.664Z,38.79
2017-11-07T02:26:34.645Z,38.90
2017-11-07T02:29:01.852Z,38.99
2017-11-07T02:31:29.073Z,39.03
2017-11-07T02:34:08.670Z,39.21
2017-11-07T02:36:35.856Z,39.25
2017-11-07T02:39:03.026Z,39.17
2017-11-07T02:41:30.228Z,39.26
2017-11-07T02:43:57.494Z,39.24
2017-11-07T02:46:24.771Z,39.24
2017-11-07T02:48:52.155Z,39.31
2017-11-07T02:51:19.373Z,39.38
2017-11-07T02:53:46.556Z,39.34
2017-11-07T02:56:13.729Z,39.46
2017-11-07T02:58:40.961Z,39.52
2017-11-07T03:01:08.199Z,39.40
2017-11-07T03:03:35.372Z,39.40
2017-11-07T03:06:02.591Z,39.44
2017-11-07T03:08:29.820Z,39.44
2017-11-07T03:10:57.050Z,39.60
2017-11-07T03:13:24.231Z,39.53
2017-11-07T03:16:14.913Z,39.53
2017-11-07T03:18:42.212Z,39.56
2017-11-07T03:21:09.412Z,39.55
2017-11-07T03:23:36.627Z,39.48
2017-11-07T03:26:03.859Z,39.56
2017-11-07T03:28:51.764Z,39.54
2017-11-07T03:31:18.987Z,39.60
2017-11-07T03:33:46.249Z,39.53
2017-11-07T03:36:13.451Z,39.61
2017-11-07T03:39:02.390Z,39.57
2017-11-07T03:41:29.667Z,39.62
2017-11-07T03:43:56.877Z,39.70
2017-11-07T03:46:24.058Z,39.67
2017-11-07T03:48:51.343Z,39.59
2017-11-07T03:51:18.592Z,39.68
2017-11-07T03:53:45.788Z,39.60
2017-11-07T03:56:12.991Z,39.60
2017-11-07T03:58:40.228Z,39.69
2017-11-07T04:01:28.148Z,39.72
2017-11-07T04:03:55.432Z,39.73
2017-11-07T04:06:22.635Z,39.82
2017-11-07T04:08:50.044Z,39.80
2017-11-07T04:14:17.675Z,39.84
2017-11-07T04:16:44.896Z,39.90
2017-11-07T04:19:12.280Z,39.85
2017-11-07T04:21:39.538Z,39.80
2017-11-07T04:24:06.790Z,39.77
2017-11-07T04:26:34.052Z,39.74
2017-11-07T04:29:02.280Z,39.66
2017-11-07T04:31:37.067Z,39.61
2017-11-07T04:39:49.644Z,39.53
2017-11-07T04:42:16.875Z,39.38
2017-11-07T04:44:44.060Z,39.29
2017-11-07T04:47:25.689Z,39.15
2017-11-07T04:49:52.889Z,39.04
2017-11-07T04:52:20.173Z,38.92
2017-11-07T04:54:47.390Z,38.84
2017-11-07T04:57:14.600Z,38.77
2017-11-07T04:59:41.794Z,38.66
2017-11-07T05:02:08.970Z,38.64
2017-11-07T05:04:53.020Z,38.52
2017-11-07T05:07:32.936Z,38.41
2017-11-07T05:10:00.279Z,38.39
2017-11-07T05:12:27.554Z,38.41
2017-11-07T05:14:54.791Z,38.31
2017-11-07T05:17:22.088Z,38.24
2017-11-07T05:19:49.344Z,38.18
2017-11-07T05:25:02.433Z,38.28
2017-11-07T05:27:29.881Z,38.11
2017-11-07T05:29:57.360Z,38.10
2017-11-07T05:35:27.389Z,38.68
2017-11-07T05:37:54.756Z,39.57
2017-11-07T05:40:22.036Z,39.80
2017-11-07T05:42:49.271Z,39.08
2017-11-07T05:45:16.511Z,38.94
2017-11-07T05:47:46.991Z,38.96
2017-11-07T05:50:14.452Z,38.77
2017-11-07T05:55:45.969Z,38.73
2017-11-07T05:58:13.223Z,38.60
2017-11-07T06:00:40.573Z,38.71
2017-11-07T06:08:41.224Z,39.08
2017-11-07T06:11:08.508Z,38.57
2017-11-07T06:18:44.404Z,38.82
2017-11-07T06:21:11.599Z,38.74
2017-11-07T06:23:40.504Z,38.79
2017-11-07T06:26:07.802Z,40.03
2017-11-07T06:54:21.198Z,39.83
2017-11-07T06:56:48.446Z,39.84
2017-11-07T06:59:15.800Z,40.06
2017-11-07T07:02:04.191Z,39.70
2017-11-07T07:04:38.602Z,40.17
2017-11-07T07:07:05.857Z,39.72
2017-11-07T07:09:33.048Z,39.77
2017-11-07T07:12:00.411Z,40.02
2017-11-07T13:02:23.332Z,36.77
2017-11-07T13:04:51.192Z,37.24
2017-11-07T17:02:44.438Z,36.35
2017-11-07T17:05:11.731Z,36.33
2017-11-07T17:43:25.340Z,36.35
2017-11-07T17:45:52.576Z,36.40
2017-11-07T17:48:19.801Z,36.36
2017-11-07T17:53:20.787Z,36.18
2017-11-07T17:55:47.976Z,36.21
2017-11-07T17:58:15.335Z,36.23
2017-11-07T18:00:42.775Z,36.24
2017-11-07T18:03:09.967Z,36.29
2017-11-07T18:31:02.692Z,36.34
2017-11-07T20:51:42.400Z,37.57
2017-11-07T20:54:11.234Z,37.73
2017-11-07T20:56:38.431Z,37.81
2017-11-07T20:59:05.889Z,37.86
2017-11-07T21:01:33.135Z,37.89
2017-11-07T21:04:09.467Z,37.98
2017-11-07T21:06:36.981Z,38.04
2017-11-07T21:09:04.315Z,38.08
2017-11-07T21:14:02.872Z,38.21
2017-11-07T21:19:33.370Z,38.36
2017-11-07T21:22:00.580Z,38.42
2017-11-07T21:24:27.802Z,38.46
2017-11-07T21:26:58.470Z,38.49
2017-11-07T21:29:25.808Z,38.56
2017-11-07T21:31:53.184Z,38.68
2017-11-07T21:34:24.353Z,38.72
2017-11-07T21:36:52.036Z,38.72
2017-11-07T21:39:19.339Z,38.80
2017-11-07T21:41:46.687Z,38.87
2017-11-07T21:44:13.957Z,38.95
2017-11-07T21:46:41.144Z,39.01
2017-11-07T21:49:22.260Z,39.06
2017-11-07T21:51:50.262Z,39.08
2017-11-07T21:57:27.297Z,39.15
2017-11-07T22:02:58.727Z,39.31
2017-11-07T22:08:22.923Z,39.40
2017-11-07T22:16:50.223Z,39.52
2017-11-07T22:25:22.751Z,39.71
2017-11-07T22:27:50.095Z,39.75
2017-11-07T22:30:17.450Z,39.78
2017-11-07T22:35:32.625Z,39.86
2017-11-07T22:37:59.866Z,39.86
2017-11-07T22:40:27.246Z,39.91
2017-11-07T22:45:26.350Z,39.99
2017-11-07T22:47:53.652Z,40.05
2017-11-07T22:50:20.894Z,40.11
2017-11-07T23:01:20.838Z,40.19
2017-11-07T23:03:48.054Z,40.26
2017-11-07T23:06:15.240Z,40.34
2017-11-07T23:08:45.929Z,40.40
2017-11-07T23:11:13.217Z,40.47
2017-11-07T23:13:40.525Z,40.45
2017-11-07T23:16:07.746Z,40.51
2017-11-07T23:18:34.952Z,40.51
2017-11-07T23:27:23.909Z,40.58
2017-11-07T23:29:51.165Z,40.65
2017-11-07T23:32:25.448Z,40.70
2017-11-07T23:34:53.198Z,40.75
2017-11-07T23:37:20.618Z,40.80
2017-11-07T23:39:47.944Z,40.85
2017-11-07T23:42:15.205Z,40.87
2017-11-07T23:44:43.569Z,40.90
2017-11-07T23:47:24.422Z,40.90
2017-11-07T23:58:55.305Z,41.07
